Time,TemperatureF,DewpointF,PressureIn,WindDirection,WindDirectionDegrees,WindSpeedMPH,WindSpeedGustMPH,Humidity,HourlyPrecipIn,Conditions,Clouds,dailyrainin,SoftwareType,DateUTC
2013-09-01 00:29:00,72.1,70.3,29.69,ENE,62,1.0,1.0,94,0.00,,,-99.99,VWS V12.05,2013-09-01 04:29:00,
2013-09-01 00:59:00,70.8,68.7,29.69,ENE,62,0.0,2.0,93,0.00,,,-99.99,VWS V12.05,2013-09-01 04:59:00,
2013-09-01 01:29:00,70.1,68.0,29.68,ENE,62,0.0,2.0,93,0.00,,,-99.99,VWS V12.05,2013-09-01 05:29:00,
2013-09-01 01:59:00,69.4,67.0,29.67,ENE,62,1.0,3.0,92,0.00,,,-99.99,VWS V12.05,2013-09-01 05:59:00,
2013-09-01 02:29:00,69.6,67.2,29.66,ENE,62,0.0,2.0,92,0.00,,,-99.99,VWS V12.05,2013-09-01 06:29:00,
2013-09-01 02:59:00,69.1,66.7,29.68,ENE,62,0.0,2.0,92,0.00,,,-99.99,VWS V12.05,2013-09-01 06:59:00,
2013-09-01 03:29:00,68.8,66.7,29.68,ENE,62,0.0,2.0,93,0.00,,,-99.99,VWS V12.05,2013-09-01 07:29:00,
2013-09-01 04:00:00,68.4,66.3,29.67,ENE,62,1.0,2.0,93,0.00,,,-99.99,VWS V12.05,2013-09-01 08:00:00,
2013-09-01 04:29:00,68.3,66.2,29.67,ENE,62,0.0,2.0,93,0.00,,,-99.99,VWS V12.05,2013-09-01 08:29:00,
2013-09-01 04:59:00,68.1,66.0,29.68,ENE,62,0.0,2.0,93,0.00,,,-99.99,VWS V12.05,2013-09-01 08:59:00,
2013-09-01 05:29:00,68.1,66.3,29.69,ENE,62,0.0,1.0,94,0.00,,,-99.99,VWS V12.05,2013-09-01 09:29:00,
2013-09-01 05:59:00,67.9,66.1,29.69,ENE,62,0.0,2.0,94,0.00,,,-99.99,VWS V12.05,2013-09-01 09:59:00,
2013-09-01 06:29:00,67.9,66.1,29.69,ENE,62,0.0,2.0,94,0.00,,,-99.99,VWS V12.05,2013-09-01 10:29:00,
2013-09-01 06:59:00,67.8,66.0,29.70,ENE,62,0.0,2.0,94,0.00,,,-99.99,VWS V12.05,2013-09-01 10:59:00,
2013-09-01 07:29:00,67.8,66.0,29.71,ENE,62,0.0,1.0,94,0.00,,,-99.99,VWS V12.05,2013-09-01 11:29:00,
2013-09-01 07:59:00,68.3,66.5,29.71,ENE,62,0.0,1.0,94,0.00,,,-99.99,VWS V12.05,2013-09-01 11:59:00,
2013-09-01 08:29:00,68.9,67.1,29.72,ENE,62,0.0,1.0,94,0.00,,,-99.99,VWS V12.05,2013-09-01 12:29:00,
2013-09-01 08:59:00,70.1,68.0,29.72,ENE,62,0.0,1.0,93,0.00,,,-99.99,VWS V12.05,2013-09-01 12:59:00,
2013-09-01 09:29:00,72.0,68.3,29.72,ENE,62,0.0,3.0,88,0.00,,,-99.99,VWS V12.05,2013-09-01 13:29:00,
2013-09-01 09:59:00,73.7,68.2,29.71,WSW,250,0.0,3.0,83,0.00,,,-99.99,VWS V12.05,2013-09-01 13:59:00,
2013-09-01 10:29:00,75.4,69.2,29.71,NW,316,0.0,5.0,81,0.00,,,-99.99,VWS V12.05,2013-09-01 14:29:00,
2013-09-01 10:59:00,76.7,69.3,29.70,WSW,258,1.0,5.0,78,0.00,,,-99.99,VWS V12.05,2013-09-01 14:59:00,
2013-09-01 11:29:00,78.6,70.0,29.70,NNE,14,3.0,5.0,75,0.00,,,-99.99,VWS V12.05,2013-09-01 15:29:00,
2013-09-01 11:59:00,79.8,70.8,29.71,ENE,62,0.0,5.0,74,0.00,,,-99.99,VWS V12.05,2013-09-01 15:59:00,
2013-09-01 12:29:00,80.3,70.1,29.70,NE,44,2.0,3.0,71,0.00,,,-99.99,VWS V12.05,2013-09-01 16:29:00,
2013-09-01 12:59:00,81.1,70.0,29.69,North,1,0.0,4.0,69,0.00,,,-99.99,VWS V12.05,2013-09-01 16:59:00,
2013-09-01 13:29:00,82.2,70.2,29.68,SW,216,0.0,6.0,67,0.00,,,-99.99,VWS V12.05,2013-09-01 17:29:00,
2013-09-01 13:59:00,82.6,70.1,29.68,NNE,23,3.0,6.0,66,0.00,,,-99.99,VWS V12.05,2013-09-01 17:59:00,
2013-09-01 14:59:00,83.2,70.7,29.66,NW,305,2.0,3.0,66,0.00,,,-99.99,VWS V12.05,2013-09-01 18:59:00,
2013-09-01 15:29:00,83.0,70.5,29.65,West,265,0.0,3.0,66,0.00,,,-99.99,VWS V12.05,2013-09-01 19:29:00,
2013-09-01 15:59:00,82.6,71.0,29.65,West,265,0.0,3.0,68,0.00,,,-99.99,VWS V12.05,2013-09-01 19:59:00,
2013-09-01 16:29:00,82.6,71.8,29.64,West,265,0.0,3.0,70,0.00,,,-99.99,VWS V12.05,2013-09-01 20:29:00,
2013-09-01 16:59:00,81.6,72.1,29.64,West,272,1.0,3.0,73,0.00,,,-99.99,VWS V12.05,2013-09-01 20:59:00,
2013-09-01 17:29:00,80.3,72.1,29.64,West,264,1.0,3.0,76,0.00,,,-99.99,VWS V12.05,2013-09-01 21:29:00,
2013-09-01 17:59:00,79.4,71.6,29.64,West,264,0.0,3.0,77,0.00,,,-99.99,VWS V12.05,2013-09-01 21:59:00,
2013-09-01 18:29:00,78.6,70.8,29.64,West,264,0.0,2.0,77,0.00,,,-99.99,VWS V12.05,2013-09-01 22:29:00,
2013-09-01 18:59:00,78.1,71.1,29.64,West,264,0.0,2.0,79,0.00,,,-99.99,VWS V12.05,2013-09-01 22:59:00,
2013-09-01 19:29:00,77.4,70.8,29.63,West,264,0.0,2.0,80,0.00,,,-99.99,VWS V12.05,2013-09-01 23:29:00,
2013-09-01 19:59:00,74.9,69.0,29.68,WSW,240,1.0,5.0,82,0.00,,,-99.99,VWS V12.05,2013-09-01 23:59:00,
2013-09-01 21:30:00,70.9,68.5,29.67,NNE,20,0.0,1.0,92,0.00,,,-99.99,VWS V12.05,2013-09-02 01:30:00,
2013-09-01 22:00:00,70.3,68.2,29.68,NNE,20,0.0,2.0,93,0.01,,,-99.99,VWS V12.05,2013-09-02 02:00:00,
2013-09-01 22:30:00,70.1,68.0,29.68,NNE,20,0.0,2.0,93,0.01,,,-99.99,VWS V12.05,2013-09-02 02:30:00,
2013-09-01 23:00:00,70.6,68.8,29.68,NNE,20,0.0,2.0,94,0.00,,,-99.99,VWS V12.05,2013-09-02 03:00:00,
2013-09-01 23:30:00,70.6,68.8,29.67,NNE,20,0.0,1.0,94,0.00,,,-99.99,VWS V12.05,2013-09-02 03:30:00,